Terminal Aerodrome Forecast
Issued by NWS El Paso, TX

Home | Current Version | Previous Version | Text Only | Print | Product List | Glossary On
Versions: 1 2 3 4 5 6 7 8 9 10 11 12 13 14 15 16 17
484
FTUS44 KEPZ 180528
TAFELP
TAF
KELP 180528Z 1806/1906 13006KT P6SM FEW025 SCT050
     FM181000 VRB05KT 2SM BR SCT005 SCT060
      TEMPO 1811/1815 1/2SM FG VV004
     FM181700 24007KT P6SM SCT050 SCT110
     FM190300 27007KT P6SM FEW050=

USA.gov is the U.S. government's official web portal to all federal, state and local government web resources and services.